Time;durP1;ratioP1;P1;durP2;ratioP2;P2;SDS_P1;SDS_P2;PMS_P1;PMS_P2;Temp;Humidity;BMP_temperature;BMP_pressure;BME280_temperature;BME280_humidity;BME280_pressure;Samples;Min_cycle;Max_cycle;Signal;HPM_P1;HPM_P2
2023/10/31 00:02:09;;;;;;;;;;;10.40;99.90;;;10.02;100.00;96202.13;4983185;28;1627;-74
2023/10/31 00:04:37;;;;;;;;;;;10.40;99.90;;;9.93;100.00;96194.91;4981011;28;1568;-74
2023/10/31 00:07:04;;;;;;;;;;;10.40;99.90;;;9.88;100.00;96186.59;4979416;28;1635;-74
2023/10/31 00:09:32;;;;;;;;;;;10.30;99.90;;;9.73;100.00;96190.13;4982476;28;1679;-74
2023/10/31 00:11:59;;;;;;;;;;;10.30;99.90;;;9.64;100.00;96205.28;4981547;28;1984;-74
2023/10/31 00:14:26;;;;;;;;;;;10.10;99.90;;;9.83;100.00;96202.44;4980145;28;1695;-74
2023/10/31 00:16:58;;;;;;;;;;;10.20;99.90;;;9.70;100.00;96213.66;4980750;28;1639;-74
2023/10/31 00:19:25;;;;;;;;;;;10.20;99.90;;;9.76;100.00;96216.69;4980197;28;1733;-73
2023/10/31 00:21:52;;;;;;;;;;;10.20;99.90;;;9.80;100.00;96230.28;4981853;28;1957;-74
2023/10/31 00:24:19;;;;;;;;;;;10.20;99.90;;;9.76;100.00;96228.78;4981536;28;1627;-74
2023/10/31 00:26:47;;;;;;;;;;;10.20;99.90;;;9.74;100.00;96233.22;4979014;28;1707;-74
2023/10/31 00:29:14;;;;;;;;;;;10.20;99.90;;;9.77;100.00;96220.94;4982327;28;1680;-73
2023/10/31 00:31:41;;;;;;;;;;;10.20;99.90;;;9.75;100.00;96215.00;4978287;28;1993;-74
2023/10/31 00:34:10;;;;;;;;;;;10.20;99.90;;;9.60;100.00;96221.97;4980415;28;1634;-73
2023/10/31 00:36:37;;;;;;;;;;;10.20;99.90;;;9.60;100.00;96219.38;4981518;28;1637;-74
2023/10/31 00:39:04;;;;;;;;;;;10.10;99.90;;;9.57;100.00;96218.72;4995868;28;1610;-73
2023/10/31 00:41:31;;;;;;;;;;;10.10;99.90;;;9.51;100.00;96216.50;4981658;28;1832;-73
2023/10/31 00:43:58;;;;;;;;;;;10.00;99.90;;;9.43;100.00;96222.97;4981365;28;1722;-73
2023/10/31 00:46:25;;;;;;;;;;;9.90;99.90;;;9.46;100.00;96228.91;4979727;28;1650;-74
2023/10/31 00:48:52;;;;;;;;;;;9.90;99.90;;;9.40;100.00;96227.50;4981123;28;1901;-74
2023/10/31 00:51:19;;;;;;;;;;;9.90;99.90;;;9.41;100.00;96227.41;4981106;28;1899;-74
2023/10/31 00:53:46;;;;;;;;;;;9.90;99.90;;;9.45;100.00;96233.25;4978958;28;1655;-73
2023/10/31 00:56:13;;;;;;;;;;;9.90;99.90;;;9.45;100.00;96235.00;4979578;28;1691;-73
2023/10/31 00:58:40;;;;;;;;;;;9.90;99.90;;;9.46;100.00;96223.72;4982813;28;2016;-73
2023/10/31 01:01:07;;;;;;;;;;;9.90;99.90;;;9.36;100.00;96232.03;4983904;28;1886;-74
2023/10/31 01:03:34;;;;;;;;;;;9.80;99.90;;;9.38;100.00;96230.19;4984308;28;1736;-74
2023/10/31 01:06:01;;;;;;;;;;;9.80;99.90;;;9.51;100.00;96237.22;4984437;28;1724;-74
2023/10/31 01:08:29;;;;;;;;;;;9.80;99.90;;;9.49;100.00;96237.31;4969134;28;1708;-74
2023/10/31 01:10:56;;;;;;;;;;;9.80;99.90;;;9.52;100.00;96234.53;4985973;28;1903;-73
2023/10/31 01:13:23;;;;;;;;;;;9.80;99.90;;;9.55;100.00;96234.34;4983978;28;1888;-74
2023/10/31 01:15:50;;;;;;;;;;;9.90;99.90;;;9.47;100.00;96230.56;4985430;28;1684;-73
2023/10/31 01:18:17;;;;;;;;;;;9.90;99.90;;;9.54;100.00;96226.69;4985081;28;1609;-73
2023/10/31 01:20:44;;;;;;;;;;;9.90;99.90;;;9.54;100.00;96237.88;4999200;28;1752;-74
2023/10/31 01:23:11;;;;;;;;;;;9.90;99.90;;;9.65;100.00;96239.84;4987919;28;1765;-73
2023/10/31 01:25:38;;;;;;;;;;;9.90;99.90;;;9.60;100.00;96234.94;4984144;28;1600;-74
2023/10/31 01:28:05;;;;;;;;;;;9.90;99.90;;;9.45;100.00;96227.25;4984937;28;1714;-73
2023/10/31 01:30:32;;;;;;;;;;;10.00;99.90;;;9.54;100.00;96232.69;4984969;28;1910;-73
2023/10/31 01:33:02;;;;;;;;;;;10.00;99.90;;;9.55;100.00;96231.75;4985642;28;1539;-73
2023/10/31 01:35:29;;;;;;;;;;;10.00;99.90;;;9.61;100.00;96235.75;4989253;28;1557;-73
2023/10/31 01:37:56;;;;;;;;;;;10.00;99.90;;;9.54;100.00;96247.41;4971578;28;1489;-74
2023/10/31 01:40:23;;;;;;;;;;;10.00;99.90;;;9.68;100.00;96247.41;4983393;28;1488;-73
2023/10/31 01:42:50;;;;;;;;;;;10.00;99.90;;;9.57;100.00;96227.31;4987889;28;1566;-73
2023/10/31 01:45:17;;;;;;;;;;;10.10;99.90;;;9.75;100.00;96240.09;4988723;28;1497;-74
2023/10/31 01:47:46;;;;;;;;;;;10.00;99.90;;;9.68;100.00;96220.69;4984215;28;1600;-73
2023/10/31 01:50:13;;;;;;;;;;;10.00;99.90;;;9.73;100.00;96241.94;5001501;28;1520;-73
2023/10/31 01:52:41;;;;;;;;;;;10.00;99.90;;;9.65;100.00;96221.69;4987169;28;1988;-73
2023/10/31 01:55:09;;;;;;;;;;;10.00;99.90;;;9.67;100.00;96235.41;4982196;28;1627;-73
2023/10/31 01:57:36;;;;;;;;;;;10.00;99.90;;;9.58;100.00;96229.00;4984942;28;1495;-74
2023/10/31 02:00:04;;;;;;;;;;;10.00;99.90;;;9.62;100.00;96230.50;4984151;28;1564;-73
2023/10/31 02:02:33;;;;;;;;;;;10.00;99.90;;;9.50;100.00;96232.97;4981524;28;1552;-73
2023/10/31 02:05:00;;;;;;;;;;;10.00;99.90;;;9.54;100.00;96231.88;4981780;28;1592;-74
2023/10/31 02:07:27;;;;;;;;;;;10.00;99.90;;;9.54;100.00;96250.81;4987305;28;1553;-74
2023/10/31 02:09:54;;;;;;;;;;;9.90;99.90;;;9.60;100.00;96247.03;4985353;28;1548;-74
2023/10/31 02:12:32;;;;;;;;;;;9.90;99.90;;;9.52;100.00;96244.06;4982260;28;1977;-73
2023/10/31 02:14:59;;;;;;;;;;;9.90;99.90;;;9.55;100.00;96242.13;4986884;28;1588;-73
2023/10/31 02:17:26;;;;;;;;;;;9.90;99.90;;;9.57;100.00;96252.41;4984724;28;1611;-74
2023/10/31 02:19:54;;;;;;;;;;;9.90;99.90;;;9.49;100.00;96250.28;4983317;28;1549;-73
2023/10/31 02:22:22;;;;;;;;;;;9.90;99.90;;;9.67;100.00;96244.91;4968234;28;1675;-73
2023/10/31 02:24:49;;;;;;;;;;;10.00;99.90;;;9.57;100.00;96247.22;4988947;28;1792;-74
2023/10/31 02:27:16;;;;;;;;;;;9.90;99.90;;;9.57;100.00;96253.22;4988163;28;1520;-74
2023/10/31 02:29:43;;;;;;;;;;;9.90;99.90;;;9.52;100.00;96244.91;4970727;28;1700;-74
2023/10/31 02:32:10;;;;;;;;;;;9.90;99.90;;;9.50;100.00;96248.50;4984707;28;1906;-73
2023/10/31 02:34:38;;;;;;;;;;;9.90;99.90;;;9.46;100.00;96254.78;4986967;28;1743;-74
2023/10/31 02:37:05;;;;;;;;;;;9.80;99.90;;;9.43;100.00;96261.00;4984149;28;1576;-74
2023/10/31 02:39:33;;;;;;;;;;;9.90;99.90;;;9.40;100.00;96267.19;4988658;28;1524;-74
2023/10/31 02:42:01;;;;;;;;;;;9.80;99.90;;;9.57;100.00;96270.53;4983092;28;1684;-74
2023/10/31 02:44:28;;;;;;;;;;;9.80;99.90;;;9.46;100.00;96267.75;4981872;28;1632;-74
2023/10/31 02:46:55;;;;;;;;;;;9.90;99.90;;;9.48;100.00;96279.69;4987776;28;1512;-73
2023/10/31 02:49:22;;;;;;;;;;;9.90;99.90;;;9.52;100.00;96288.13;4985917;28;1668;-74
2023/10/31 02:51:49;;;;;;;;;;;9.80;99.90;;;9.46;100.00;96291.88;4987177;28;1985;-74
2023/10/31 02:54:16;;;;;;;;;;;9.90;99.90;;;9.55;100.00;96288.75;4986821;28;1504;-74
2023/10/31 02:56:43;;;;;;;;;;;9.90;99.90;;;9.53;100.00;96275.03;4987999;28;1485;-74
2023/10/31 02:59:11;;;;;;;;;;;9.90;99.90;;;9.65;100.00;96283.88;4984307;28;1525;-74
2023/10/31 03:01:39;;;;;;;;;;;9.90;99.90;;;9.42;100.00;96304.19;4985329;28;1543;-74
2023/10/31 03:04:06;;;;;;;;;;;9.90;99.90;;;9.45;100.00;96292.81;4987946;28;1536;-74
2023/10/31 03:06:33;;;;;;;;;;;9.90;99.90;;;9.42;100.00;96299.00;4986201;28;1703;-74
2023/10/31 03:09:00;;;;;;;;;;;9.90;99.90;;;9.41;100.00;96302.50;4983811;28;1573;-73
2023/10/31 03:11:27;;;;;;;;;;;9.80;99.90;;;9.46;100.00;96291.88;4984821;28;1910;-74
2023/10/31 03:13:56;;;;;;;;;;;9.90;99.90;;;9.52;100.00;96304.47;4991533;28;1913;-73
2023/10/31 03:16:24;;;;;;;;;;;9.80;99.90;;;9.42;100.00;96293.84;4988178;28;1655;-74
2023/10/31 03:18:51;;;;;;;;;;;9.90;99.90;;;9.49;100.00;96314.19;4986711;28;1837;-73
2023/10/31 03:21:18;;;;;;;;;;;9.80;99.90;;;9.45;100.00;96310.94;4986321;28;1565;-74
2023/10/31 03:23:49;;;;;;;;;;;9.80;99.90;;;9.55;100.00;96306.06;4988647;28;1576;-74
2023/10/31 03:26:17;;;;;;;;;;;9.80;99.90;;;9.40;100.00;96307.81;4985032;28;1470;-73
2023/10/31 03:28:44;;;;;;;;;;;9.80;99.90;;;9.35;100.00;96309.78;4985300;28;1643;-73
2023/10/31 03:31:12;;;;;;;;;;;9.80;99.90;;;9.58;100.00;96311.06;4982843;28;2021;-74
2023/10/31 03:33:40;;;;;;;;;;;9.80;99.90;;;9.49;100.00;96312.44;4982943;28;1666;-73
2023/10/31 03:36:08;;;;;;;;;;;9.80;99.90;;;9.47;100.00;96309.09;4982514;28;1653;-74
2023/10/31 03:38:36;;;;;;;;;;;9.80;99.90;;;9.51;100.00;96310.59;4981928;28;1429;-74
2023/10/31 03:41:03;;;;;;;;;;;9.80;99.90;;;9.59;100.00;96323.09;4982782;28;1599;-73
2023/10/31 03:43:31;;;;;;;;;;;9.80;99.90;;;9.34;100.00;96318.50;4983484;28;1594;-73
2023/10/31 03:45:57;;;;;;;;;;;9.80;99.90;;;9.42;100.00;96334.44;4980887;28;1496;-74
2023/10/31 03:48:24;;;;;;;;;;;9.80;99.90;;;9.47;100.00;96318.63;4983252;28;1781;-74
2023/10/31 03:50:51;;;;;;;;;;;9.80;99.90;;;9.32;100.00;96331.53;4984206;28;1491;-74
2023/10/31 03:53:18;;;;;;;;;;;9.70;99.90;;;9.35;100.00;96346.91;4983080;28;1911;-74
2023/10/31 03:55:45;;;;;;;;;;;9.70;99.90;;;9.32;100.00;96354.84;4987729;28;1454;-74
2023/10/31 03:58:12;;;;;;;;;;;9.80;99.90;;;9.30;100.00;96337.72;4983873;28;1488;-74
2023/10/31 04:00:40;;;;;;;;;;;9.70;99.90;;;9.34;100.00;96354.75;4981995;28;1654;-74
2023/10/31 04:03:10;;;;;;;;;;;9.70;99.90;;;9.38;100.00;96356.25;4980401;28;1433;-74
2023/10/31 04:05:37;;;;;;;;;;;9.70;99.90;;;9.43;100.00;96370.59;4984682;28;1198;-74
2023/10/31 04:08:04;;;;;;;;;;;9.60;99.90;;;9.14;100.00;96351.53;4983542;28;1497;-74
2023/10/31 04:10:31;;;;;;;;;;;9.70;99.90;;;9.18;100.00;96355.63;4978008;28;1472;-73
2023/10/31 04:12:58;;;;;;;;;;;9.70;99.90;;;9.21;100.00;96359.78;4979666;28;1985;-73
2023/10/31 04:15:25;;;;;;;;;;;9.70;99.90;;;9.24;100.00;96367.41;4984565;28;1464;-75
2023/10/31 04:17:53;;;;;;;;;;;9.60;99.90;;;9.22;100.00;96369.25;4985587;28;1719;-74
2023/10/31 04:20:20;;;;;;;;;;;9.70;99.90;;;9.27;100.00;96376.75;4982554;28;1591;-74
2023/10/31 04:22:47;;;;;;;;;;;9.70;99.90;;;9.27;100.00;96381.94;4991047;28;1831;-74
2023/10/31 04:25:14;;;;;;;;;;;9.70;99.90;;;9.38;100.00;96379.56;4983175;28;1606;-74
2023/10/31 04:27:43;;;;;;;;;;;9.70;99.90;;;9.35;100.00;96379.72;4982701;28;1476;-74
2023/10/31 04:30:10;;;;;;;;;;;9.70;99.90;;;9.21;100.00;96378.78;4981457;28;1529;-74
2023/10/31 04:32:40;;;;;;;;;;;9.70;99.90;;;9.35;100.00;96385.75;4984239;28;1902;-74
2023/10/31 04:35:08;;;;;;;;;;;9.70;99.90;;;9.27;100.00;96384.50;4973267;28;1507;-74
2023/10/31 04:37:35;;;;;;;;;;;9.70;99.90;;;9.24;100.00;96367.41;4987758;28;1536;-74
2023/10/31 04:40:02;;;;;;;;;;;9.70;99.90;;;9.21;100.00;96385.69;4988596;28;1571;-73
2023/10/31 04:42:29;;;;;;;;;;;9.70;99.90;;;9.30;100.00;96386.91;4986427;28;1459;-74
2023/10/31 04:44:56;;;;;;;;;;;9.80;99.90;;;9.20;100.00;96379.66;4996759;28;1511;-74
2023/10/31 04:47:23;;;;;;;;;;;9.70;99.90;;;9.23;100.00;96377.84;4991789;28;1454;-74
2023/10/31 04:49:50;;;;;;;;;;;9.70;99.90;;;9.42;100.00;96386.25;4989893;28;1585;-74
2023/10/31 04:52:17;;;;;;;;;;;9.60;99.90;;;9.34;100.00;96375.47;4988443;28;1906;-74
2023/10/31 04:54:44;;;;;;;;;;;9.70;99.90;;;9.43;100.00;96377.53;4985227;28;1451;-73
2023/10/31 04:57:12;;;;;;;;;;;9.60;99.90;;;9.27;100.00;96380.16;4985008;28;1503;-74
2023/10/31 04:59:39;;;;;;;;;;;9.60;99.90;;;9.15;100.00;96380.88;4986406;28;1818;-74
2023/10/31 05:02:06;;;;;;;;;;;9.60;99.90;;;9.26;100.00;96391.47;4986488;28;1565;-74
2023/10/31 05:04:33;;;;;;;;;;;9.70;99.90;;;9.30;100.00;96390.34;4990451;28;1656;-74
2023/10/31 05:07:00;;;;;;;;;;;9.60;99.90;;;9.24;100.00;96387.25;4986589;28;1703;-73
2023/10/31 05:09:27;;;;;;;;;;;9.70;99.90;;;9.23;100.00;96393.38;4987767;28;1686;-74
2023/10/31 05:11:54;;;;;;;;;;;9.60;99.90;;;9.24;100.00;96388.13;4987231;28;1999;-74
2023/10/31 05:14:21;;;;;;;;;;;9.70;99.90;;;9.14;100.00;96397.31;4988845;28;1543;-74
2023/10/31 05:16:48;;;;;;;;;;;9.70;99.90;;;9.12;100.00;96397.41;4972256;28;1592;-73
2023/10/31 05:19:16;;;;;;;;;;;9.70;99.90;;;9.22;100.00;96392.53;4990886;28;1529;-74
2023/10/31 05:21:43;;;;;;;;;;;9.70;99.90;;;9.24;100.00;96407.97;4984699;28;1451;-74
2023/10/31 05:24:10;;;;;;;;;;;9.60;99.90;;;9.24;100.00;96406.25;4986058;28;1790;-74
2023/10/31 05:26:39;;;;;;;;;;;9.70;99.90;;;9.29;100.00;96405.97;4991210;28;1225;-74
2023/10/31 05:29:06;;;;;;;;;;;9.70;99.90;;;9.29;100.00;96412.00;4983699;28;1889;-74
2023/10/31 05:31:34;;;;;;;;;;;9.70;99.90;;;9.33;100.00;96423.03;4987133;28;1899;-74
2023/10/31 05:34:03;;;;;;;;;;;9.60;99.90;;;9.26;100.00;96419.06;4986025;28;1510;-73
2023/10/31 05:36:30;;;;;;;;;;;9.70;99.90;;;9.23;100.00;96427.03;4987049;28;1394;-74
2023/10/31 05:38:57;;;;;;;;;;;9.70;99.90;;;9.13;100.00;96416.34;4986382;28;1503;-74
2023/10/31 05:41:24;;;;;;;;;;;9.70;99.90;;;9.35;100.00;96432.38;4983549;28;1650;-74
2023/10/31 05:43:51;;;;;;;;;;;9.70;99.90;;;9.21;100.00;96443.50;4987151;28;1230;-73
2023/10/31 05:46:19;;;;;;;;;;;9.70;99.90;;;9.39;100.00;96451.97;4986452;28;1443;-74
2023/10/31 05:48:46;;;;;;;;;;;9.70;99.90;;;9.30;100.00;96456.84;4985012;28;1408;-74
2023/10/31 05:51:16;;;;;;;;;;;9.60;99.90;;;9.37;100.00;96458.16;4984587;28;1339;-74
2023/10/31 05:53:48;;;;;;;;;;;9.70;99.90;;;9.22;100.00;96465.03;4989924;28;1992;-74
2023/10/31 05:56:15;;;;;;;;;;;9.60;99.90;;;9.23;100.00;96469.28;4988953;28;1512;-73
2023/10/31 05:58:43;;;;;;;;;;;9.70;99.90;;;9.28;100.00;96480.22;4973447;28;1489;-73
2023/10/31 06:01:10;;;;;;;;;;;9.70;99.90;;;9.21;100.00;96487.50;4969005;28;1414;-74
2023/10/31 06:03:37;;;;;;;;;;;9.60;99.90;;;9.10;100.00;96491.56;4986374;28;1394;-74
2023/10/31 06:06:05;;;;;;;;;;;9.60;99.90;;;9.17;100.00;96496.34;4972123;28;1606;-73
2023/10/31 06:08:32;;;;;;;;;;;9.60;99.90;;;9.39;100.00;96485.63;4985131;28;1504;-74
2023/10/31 06:11:00;;;;;;;;;;;9.60;99.90;;;9.38;100.00;96498.69;4985631;28;1477;-74
2023/10/31 06:13:27;;;;;;;;;;;9.70;99.90;;;9.29;100.00;96505.22;4981429;28;1910;-74
2023/10/31 06:15:54;;;;;;;;;;;9.60;99.90;;;9.34;100.00;96507.53;4984106;28;1602;-74
2023/10/31 06:18:27;;;;;;;;;;;9.60;99.90;;;9.23;100.00;96502.13;4985141;28;984;-74
2023/10/31 06:20:55;;;;;;;;;;;9.60;99.90;;;9.25;100.00;96515.81;4981130;28;1402;-74
2023/10/31 06:23:22;;;;;;;;;;;9.70;99.90;;;9.25;100.00;96528.75;5002722;28;1862;-74
2023/10/31 06:25:49;;;;;;;;;;;9.70;99.90;;;9.39;100.00;96527.06;4970168;28;1115;-74
2023/10/31 06:28:16;;;;;;;;;;;9.70;99.90;;;9.25;100.00;96533.94;4982765;28;1428;-74
2023/10/31 06:30:43;;;;;;;;;;;9.70;99.90;;;9.31;100.00;96549.97;4981336;28;1308;-74
2023/10/31 06:33:10;;;;;;;;;;;9.70;99.90;;;9.25;100.00;96544.28;4985586;28;1910;-74
2023/10/31 06:35:37;;;;;;;;;;;9.70;99.90;;;9.46;100.00;96563.84;4985414;28;1087;-74
2023/10/31 06:38:04;;;;;;;;;;;9.70;99.90;;;9.33;100.00;96555.91;4987286;28;1484;-74
2023/10/31 06:40:32;;;;;;;;;;;9.70;99.90;;;9.43;100.00;96562.25;4985465;28;1782;-74
2023/10/31 06:42:59;;;;;;;;;;;9.70;99.90;;;9.37;100.00;96557.44;4984205;28;1858;-74
2023/10/31 06:45:26;;;;;;;;;;;9.70;99.90;;;9.40;100.00;96565.03;4985887;28;1683;-73
2023/10/31 06:47:53;;;;;;;;;;;9.70;99.90;;;9.54;100.00;96566.03;4992761;28;1438;-74
2023/10/31 06:50:21;;;;;;;;;;;9.70;99.90;;;9.49;100.00;96571.47;4983084;28;1419;-74
2023/10/31 06:52:47;;;;;;;;;;;9.70;99.90;;;9.39;100.00;96578.03;4981257;28;1939;-74
2023/10/31 06:55:15;;;;;;;;;;;9.80;99.90;;;9.20;100.00;96583.38;4971701;28;1507;-73
2023/10/31 06:57:43;;;;;;;;;;;9.80;99.90;;;9.25;100.00;96589.16;4972393;28;1010;-74
2023/10/31 07:00:11;;;;;;;;;;;9.70;99.90;;;9.34;100.00;96586.06;4998020;28;1345;-74
2023/10/31 07:02:38;;;;;;;;;;;9.70;99.90;;;9.24;100.00;96594.41;4987963;28;1497;-74
2023/10/31 07:05:05;;;;;;;;;;;9.70;99.90;;;9.19;100.00;96598.09;4985669;28;1254;-74
2023/10/31 07:07:33;;;;;;;;;;;9.80;99.90;;;9.25;100.00;96596.09;4981585;28;1943;-74
2023/10/31 07:10:00;;;;;;;;;;;9.80;99.90;;;9.28;100.00;96609.69;4985442;28;1387;-74
2023/10/31 07:12:27;;;;;;;;;;;9.70;99.90;;;9.12;100.00;96614.00;4970004;28;1976;-74
2023/10/31 07:14:54;;;;;;;;;;;9.70;99.90;;;9.29;100.00;96613.13;4984593;28;1117;-74
2023/10/31 07:17:21;;;;;;;;;;;9.80;99.90;;;9.32;100.00;96602.59;4983504;28;1479;-74
2023/10/31 07:19:47;;;;;;;;;;;9.70;99.90;;;9.33;100.00;96614.66;4997998;28;1055;-74
2023/10/31 07:22:15;;;;;;;;;;;9.80;99.90;;;9.13;100.00;96618.28;4968685;28;1607;-74
2023/10/31 07:24:45;;;;;;;;;;;9.70;99.90;;;9.28;100.00;96621.81;4984813;28;1444;-74
2023/10/31 07:27:12;;;;;;;;;;;9.80;99.90;;;9.19;100.00;96628.28;4983684;28;1638;-74
2023/10/31 07:29:40;;;;;;;;;;;9.70;99.90;;;9.35;100.00;96626.59;4983970;28;1244;-74
2023/10/31 07:32:08;;;;;;;;;;;9.70;99.90;;;9.28;100.00;96635.59;4983561;28;1977;-74
2023/10/31 07:34:40;;;;;;;;;;;9.60;99.90;;;9.29;100.00;96641.63;4985671;28;1482;-74
2023/10/31 07:37:07;;;;;;;;;;;9.60;99.90;;;9.40;100.00;96647.06;4984594;28;1621;-75
2023/10/31 07:39:34;;;;;;;;;;;9.60;99.90;;;9.18;100.00;96647.34;4986669;28;1507;-74
2023/10/31 07:42:01;;;;;;;;;;;9.60;99.90;;;9.21;100.00;96650.63;4983764;28;1602;-74
2023/10/31 07:44:28;;;;;;;;;;;9.70;99.90;;;9.14;100.00;96649.25;4984528;28;1523;-74
2023/10/31 07:46:55;;;;;;;;;;;9.70;99.90;;;9.42;100.00;96656.44;4982076;28;1399;-73
2023/10/31 07:49:22;;;;;;;;;;;9.70;99.90;;;9.31;100.00;96650.97;4982467;28;1061;-74
2023/10/31 07:51:49;;;;;;;;;;;9.70;99.90;;;9.33;100.00;96663.84;4983169;28;1663;-74
2023/10/31 07:54:16;;;;;;;;;;;9.70;99.90;;;9.31;100.00;96660.50;4969852;28;2197;-74
2023/10/31 07:56:43;;;;;;;;;;;9.70;99.90;;;9.28;100.00;96660.66;4981208;28;1016;-74
2023/10/31 07:59:11;;;;;;;;;;;9.70;99.90;;;9.23;100.00;96663.47;4988009;28;1510;-74
2023/10/31 08:01:38;;;;;;;;;;;9.70;99.90;;;9.27;100.00;96671.94;4979554;28;1614;-74
2023/10/31 08:04:05;;;;;;;;;;;9.70;99.90;;;9.42;100.00;96669.38;4981585;28;1594;-74
2023/10/31 08:06:32;;;;;;;;;;;9.70;99.90;;;9.42;100.00;96671.16;4983561;28;1484;-74
2023/10/31 08:08:59;;;;;;;;;;;9.80;99.90;;;9.37;100.00;96679.16;4982703;28;1829;-74
2023/10/31 08:11:26;;;;;;;;;;;9.80;99.90;;;9.46;100.00;96683.00;4977904;28;1351;-74
2023/10/31 08:13:53;;;;;;;;;;;9.80;99.90;;;9.62;100.00;96680.44;4982261;28;1984;-74
2023/10/31 08:16:21;;;;;;;;;;;9.80;99.90;;;9.66;100.00;96687.13;4985874;28;1451;-74
2023/10/31 08:18:49;;;;;;;;;;;9.90;99.90;;;9.81;100.00;96699.28;4982754;28;1002;-74
2023/10/31 08:21:16;;;;;;;;;;;9.90;99.90;;;9.72;100.00;96691.16;4980993;28;1249;-74
2023/10/31 08:23:46;;;;;;;;;;;10.00;99.90;;;9.91;100.00;96689.25;4983211;28;1838;-74
2023/10/31 08:26:13;;;;;;;;;;;10.00;99.90;;;9.95;100.00;96695.13;4985139;28;1013;-74
2023/10/31 08:28:40;;;;;;;;;;;10.10;99.90;;;9.96;100.00;96683.81;4978679;28;1301;-74
2023/10/31 08:31:07;;;;;;;;;;;10.20;99.90;;;9.69;100.00;96686.97;4967253;28;1681;-74
2023/10/31 08:33:35;;;;;;;;;;;10.10;99.90;;;9.93;100.00;96678.81;4986306;28;2007;-74
2023/10/31 08:36:02;;;;;;;;;;;10.20;99.90;;;9.94;100.00;96694.25;4981246;28;1606;-74
2023/10/31 08:38:29;;;;;;;;;;;10.20;99.90;;;9.84;100.00;96682.72;4984616;28;1823;-74
2023/10/31 08:40:58;;;;;;;;;;;10.20;99.90;;;10.09;100.00;96677.03;4983414;28;1320;-74
2023/10/31 08:43:26;;;;;;;;;;;10.30;99.90;;;9.95;100.00;96674.38;4984262;28;1392;-74
2023/10/31 08:45:53;;;;;;;;;;;10.40;99.90;;;9.83;100.00;96670.69;4980757;28;1403;-74
2023/10/31 08:48:21;;;;;;;;;;;10.40;99.90;;;10.17;100.00;96671.41;4974418;28;1532;-72
2023/10/31 08:50:48;;;;;;;;;;;10.30;99.90;;;10.11;100.00;96672.59;4982122;28;1606;-74
2023/10/31 08:53:18;;;;;;;;;;;10.30;99.90;;;10.15;100.00;96675.84;4971723;28;1999;-74
2023/10/31 08:55:46;;;;;;;;;;;10.40;99.90;;;10.09;100.00;96676.22;4967405;28;1636;-74
2023/10/31 08:58:13;;;;;;;;;;;10.30;99.90;;;10.07;100.00;96675.47;4974077;28;1626;-74
2023/10/31 09:00:41;;;;;;;;;;;10.40;99.90;;;10.03;100.00;96691.19;4980281;28;1630;-73
2023/10/31 09:03:08;;;;;;;;;;;10.50;99.90;;;10.40;100.00;96704.75;4981129;28;1587;-74
2023/10/31 09:05:36;;;;;;;;;;;10.40;99.90;;;10.75;100.00;96694.13;4986130;28;1700;-73
2023/10/31 09:08:03;;;;;;;;;;;10.60;99.90;;;10.57;100.00;96695.19;4978965;28;2259;-74
2023/10/31 09:10:30;;;;;;;;;;;10.80;99.90;;;10.52;100.00;96690.25;4983059;28;1476;-74
2023/10/31 09:12:57;;;;;;;;;;;10.90;99.90;;;10.47;100.00;96705.25;4983264;28;1988;-74
2023/10/31 09:15:24;;;;;;;;;;;10.90;99.90;;;10.77;100.00;96694.88;4981707;28;1554;-74
2023/10/31 09:17:51;;;;;;;;;;;11.00;99.90;;;10.78;100.00;96695.69;4984154;28;1344;-74
2023/10/31 09:20:18;;;;;;;;;;;10.80;99.90;;;10.88;100.00;96700.28;4987111;28;1431;-74
2023/10/31 09:22:45;;;;;;;;;;;10.90;99.90;;;10.59;100.00;96681.19;4984509;28;1550;-74
2023/10/31 09:25:12;;;;;;;;;;;10.90;99.90;;;10.88;100.00;96689.06;4984362;28;1834;-74
2023/10/31 09:27:42;;;;;;;;;;;11.10;99.90;;;10.79;100.00;96703.41;4989203;28;1580;-74
2023/10/31 09:30:09;;;;;;;;;;;10.90;99.90;;;10.56;100.00;96711.66;4998490;28;1632;-74
2023/10/31 09:32:36;;;;;;;;;;;10.80;99.90;;;10.65;100.00;96709.38;4984470;28;1721;-74
2023/10/31 09:35:04;;;;;;;;;;;10.80;99.90;;;10.61;100.00;96692.31;4986219;28;1903;-74
2023/10/31 09:37:31;;;;;;;;;;;10.80;99.90;;;10.27;100.00;96699.34;4987793;28;1484;-74
2023/10/31 09:39:58;;;;;;;;;;;10.70;99.90;;;10.38;100.00;96714.38;4967612;28;1457;-73
2023/10/31 09:42:25;;;;;;;;;;;10.80;99.90;;;10.94;100.00;96719.03;4986010;28;1739;-74
2023/10/31 09:44:52;;;;;;;;;;;10.90;99.90;;;10.77;100.00;96705.25;4983789;28;1699;-74
2023/10/31 09:47:23;;;;;;;;;;;11.00;99.90;;;11.39;100.00;96712.06;4987136;28;1328;-72
2023/10/31 09:49:50;;;;;;;;;;;11.10;99.90;;;11.40;100.00;96700.72;4966991;28;1433;-72
2023/10/31 09:52:20;;;;;;;;;;;11.40;99.90;;;11.22;100.00;96700.91;4983678;28;1390;-72
2023/10/31 09:54:49;;;;;;;;;;;11.60;99.90;;;11.08;100.00;96704.31;4984478;28;1974;-72
2023/10/31 09:57:17;;;;;;;;;;;11.70;99.90;;;11.19;100.00;96706.28;4985826;28;1388;-72
2023/10/31 09:59:45;;;;;;;;;;;11.60;99.90;;;11.60;100.00;96700.34;4968840;28;1696;-72
2023/10/31 10:02:12;;;;;;;;;;;11.50;99.90;;;11.43;100.00;96690.16;4981805;28;1834;-73
2023/10/31 10:04:39;;;;;;;;;;;11.70;99.90;;;11.49;100.00;96697.56;4996097;28;1426;-72
2023/10/31 10:07:06;;;;;;;;;;;11.70;99.90;;;11.48;100.00;96704.53;4969061;28;1134;-73
2023/10/31 10:09:33;;;;;;;;;;;11.50;99.90;;;11.35;100.00;96692.38;4982512;28;1364;-73
2023/10/31 10:12:01;;;;;;;;;;;11.40;99.90;;;11.38;100.00;96702.56;4983525;28;1253;-72
2023/10/31 10:14:28;;;;;;;;;;;11.30;99.90;;;11.31;100.00;96696.91;4987559;28;1979;-73
2023/10/31 10:16:57;;;;;;;;;;;11.40;99.90;;;11.41;100.00;96695.44;5001065;28;1581;-72
2023/10/31 10:19:25;;;;;;;;;;;11.50;99.90;;;11.36;100.00;96701.84;4982821;28;1378;-73
2023/10/31 10:21:54;;;;;;;;;;;11.40;99.90;;;11.40;100.00;96711.13;4984199;28;1255;-73
2023/10/31 10:24:22;;;;;;;;;;;11.60;99.90;;;11.15;100.00;96720.34;4989364;28;1438;-73
2023/10/31 10:26:49;;;;;;;;;;;11.50;99.90;;;11.38;100.00;96720.75;4985685;28;1551;-73
2023/10/31 10:29:16;;;;;;;;;;;11.40;99.90;;;11.40;100.00;96718.91;4987120;28;1637;-73
2023/10/31 10:31:46;;;;;;;;;;;11.50;99.90;;;11.01;100.00;96718.56;4983499;28;1522;-70
2023/10/31 10:34:15;;;;;;;;;;;11.50;99.90;;;11.08;100.00;96745.03;4984370;28;1979;-73
2023/10/31 10:36:47;;;;;;;;;;;11.30;99.90;;;10.94;100.00;96716.44;4981517;28;1433;-73
2023/10/31 10:39:22;;;;;;;;;;;11.40;99.90;;;10.94;100.00;96732.00;5003211;28;1407;-74
2023/10/31 10:41:55;;;;;;;;;;;11.20;99.90;;;10.82;100.00;96725.75;4984961;28;1717;-74
2023/10/31 10:44:35;;;;;;;;;;;11.10;99.90;;;10.74;100.00;96718.41;4973370;28;1427;-73
2023/10/31 10:47:06;;;;;;;;;;;11.10;99.90;;;10.96;100.00;96720.59;4987919;28;1595;-73
2023/10/31 10:49:37;;;;;;;;;;;11.00;99.90;;;10.88;100.00;96715.88;4983595;28;1727;-74
2023/10/31 10:52:16;;;;;;;;;;;11.10;99.90;;;10.84;100.00;96713.53;4980765;28;1407;-73
2023/10/31 10:55:01;;;;;;;;;;;11.20;99.90;;;11.01;100.00;96699.56;4987117;28;1982;-73
2023/10/31 10:57:54;;;;;;;;;;;11.30;99.90;;;11.19;100.00;96697.66;4968334;28;1590;-73
2023/10/31 11:00:24;;;;;;;;;;;11.50;99.90;;;11.39;100.00;96712.06;4983682;28;1462;-73
2023/10/31 11:02:53;;;;;;;;;;;11.40;99.90;;;11.26;100.00;96719.72;4982720;28;1924;-73
2023/10/31 11:05:21;;;;;;;;;;;11.40;99.90;;;11.48;100.00;96706.31;4987361;28;1409;-74
2023/10/31 11:07:48;;;;;;;;;;;11.60;99.90;;;11.68;100.00;96708.53;4985471;28;1425;-73
2023/10/31 11:10:17;;;;;;;;;;;11.70;99.90;;;11.56;100.00;96713.63;4969966;28;1424;-73
2023/10/31 11:12:44;;;;;;;;;;;11.70;99.90;;;11.77;100.00;96729.69;4970338;28;1618;-73
2023/10/31 11:15:14;;;;;;;;;;;11.70;99.90;;;11.41;100.00;96712.81;4970329;28;1973;-74
2023/10/31 11:17:45;;;;;;;;;;;11.70;99.90;;;11.34;100.00;96709.75;4986640;28;1571;-73
2023/10/31 11:20:14;;;;;;;;;;;11.60;99.90;;;11.55;100.00;96715.41;4985554;28;1701;-73
2023/10/31 11:22:45;;;;;;;;;;;11.60;99.90;;;11.38;100.00;96711.22;4987325;28;1443;-73
2023/10/31 11:25:15;;;;;;;;;;;11.50;99.90;;;11.16;100.00;96696.06;4984966;28;1379;-73
2023/10/31 11:27:57;;;;;;;;;;;11.40;99.90;;;11.09;100.00;96703.38;4986279;28;1520;-73
2023/10/31 11:30:24;;;;;;;;;;;11.40;99.90;;;10.98;100.00;96695.38;4984435;28;1482;-73
2023/10/31 11:32:52;;;;;;;;;;;11.40;99.90;;;11.19;100.00;96702.84;4986749;28;1574;-73